Time;durP1;ratioP1;P1;durP2;ratioP2;P2;SDS_P1;SDS_P2;PMS_P1;PMS_P2;Temp;Humidity;BMP_temperature;BMP_pressure;BME280_temperature;BME280_humidity;BME280_pressure;Samples;Min_cycle;Max_cycle;Signal;HPM_P1;HPM_P2
2021/08/28 00:00:37;;;;;;;8.20;6.62;;;;;;;16.73;76.72;99205.04;1803646;78;21455;-68
2021/08/28 00:03:03;;;;;;;10.13;6.35;;;;;;;16.75;76.74;99201.89;1804093;78;21792;-68
2021/08/28 00:05:30;;;;;;;11.15;7.17;;;;;;;16.77;76.70;99196.73;1805143;78;21505;-68
2021/08/28 00:08:02;;;;;;;8.50;6.87;;;;;;;16.81;76.79;99203.17;1803145;78;21532;-68
2021/08/28 00:10:30;;;;;;;9.65;6.62;;;;;;;16.84;76.79;99199.65;1805437;78;20977;-68
2021/08/28 00:12:56;;;;;;;7.35;6.30;;;;;;;16.87;76.73;99198.12;1803183;78;21055;-69
2021/08/28 00:15:22;;;;;;;9.78;6.35;;;;;;;16.88;76.68;99197.75;1772717;79;21025;-68
2021/08/28 00:17:50;;;;;;;8.43;6.33;;;;;;;16.92;76.67;99196.42;1804499;78;21024;-67
2021/08/28 00:20:17;;;;;;;7.85;6.45;;;;;;;16.95;76.61;99194.86;1803202;78;21485;-68
2021/08/28 00:22:43;;;;;;;10.98;6.22;;;;;;;16.96;76.62;99202.83;1777238;78;20972;-68
2021/08/28 00:25:12;;;;;;;10.35;6.92;;;;;;;16.98;76.59;99203.27;1810741;78;21044;-68
2021/08/28 00:27:39;;;;;;;13.43;7.08;;;;;;;17.00;76.51;99198.14;1780618;78;21125;-68
2021/08/28 00:30:07;;;;;;;10.80;7.40;;;;;;;17.01;76.48;99203.91;1774581;79;21013;-68
2021/08/28 00:32:34;;;;;;;10.32;6.90;;;;;;;17.04;76.43;99205.16;1802441;78;21066;-68
2021/08/28 00:35:01;;;;;;;9.85;7.12;;;;;;;17.06;76.39;99199.23;1801889;79;21051;-68
2021/08/28 00:37:28;;;;;;;11.35;7.50;;;;;;;17.08;76.35;99187.11;1805323;78;21503;-68
2021/08/28 00:39:55;;;;;;;9.25;6.92;;;;;;;17.07;76.31;99188.30;1802464;78;21108;-68
2021/08/28 00:42:22;;;;;;;9.13;6.92;;;;;;;17.07;76.45;99200.24;1804877;78;21484;-68
2021/08/28 00:44:50;;;;;;;9.05;7.12;;;;;;;17.08;76.36;99199.05;1776021;79;21102;-68
2021/08/28 00:47:20;;;;;;;8.45;6.60;;;;;;;17.09;76.33;99190.12;1800749;79;21500;-67
2021/08/28 00:49:50;;;;;;;10.50;7.47;;;;;;;17.08;76.32;99171.22;1795581;79;21099;-67
2021/08/28 00:52:20;;;;;;;10.75;6.85;;;;;;;17.09;76.18;99163.69;1780608;79;20990;-67
2021/08/28 00:54:48;;;;;;;12.25;7.70;;;;;;;17.06;76.01;99157.48;1793184;79;21086;-67
2021/08/28 00:57:17;;;;;;;10.28;6.45;;;;;;;17.02;75.88;99161.02;1763637;79;21645;-68
2021/08/28 00:59:46;;;;;;;13.65;6.87;;;;;;;17.00;75.85;99176.46;1790103;80;21490;-67
2021/08/28 01:02:12;;;;;;;9.88;6.80;;;;;;;16.99;75.65;99182.61;1783866;79;21036;-68
2021/08/28 01:05:02;;;;;;;11.95;7.10;;;;;;;17.00;75.55;99176.46;1796705;79;21682;-67
2021/08/28 01:07:49;;;;;;;10.95;7.35;;;;;;;17.01;75.48;99179.45;1797080;79;21066;-66
2021/08/28 01:10:41;;;;;;;8.88;6.60;;;;;;;17.01;75.56;99176.66;1721991;79;21470;-67
2021/08/28 01:13:16;;;;;;;11.38;6.85;;;;;;;17.01;75.43;99159.97;1794289;79;21538;-68
2021/08/28 01:15:45;;;;;;;9.40;7.12;;;;;;;16.98;75.28;99166.28;1778590;80;20997;-68
2021/08/28 01:18:15;;;;;;;10.08;6.70;;;;;;;16.96;75.18;99165.84;1794413;79;21146;-68
2021/08/28 01:21:07;;;;;;;14.43;6.67;;;;;;;16.94;75.08;99166.22;1769030;79;21087;-67
2021/08/28 01:23:38;;;;;;;10.75;6.25;;;;;;;16.94;74.77;99165.44;1769998;79;21044;-68
2021/08/28 01:26:12;;;;;;;9.83;7.00;;;;;;;16.93;74.73;99154.89;1705049;79;21126;-68
2021/08/28 01:28:53;;;;;;;12.28;6.78;;;;;;;16.90;74.62;99154.25;1793395;79;21020;-67
2021/08/28 01:31:23;;;;;;;8.95;7.15;;;;;;;16.87;74.51;99162.73;1796930;79;21142;-67
2021/08/28 01:33:50;;;;;;;11.28;7.58;;;;;;;16.85;74.56;99184.58;1797589;79;20999;-68
2021/08/28 01:36:19;;;;;;;10.03;7.80;;;;;;;16.86;74.66;99190.93;1794926;79;21019;-68
2021/08/28 01:39:07;;;;;;;11.40;7.95;;;;;;;16.89;74.79;99197.95;1765421;81;20987;-68
2021/08/28 01:41:34;;;;;;;10.38;7.55;;;;;;;16.92;75.04;99199.20;1769773;79;21530;-68
2021/08/28 01:44:01;;;;;;;11.53;7.45;;;;;;;16.94;75.24;99206.56;1822790;78;21522;-68
2021/08/28 01:46:31;;;;;;;10.82;7.85;;;;;;;16.95;75.43;99198.45;1816122;78;20999;-69
2021/08/28 01:48:58;;;;;;;10.98;7.55;;;;;;;16.98;75.68;99194.11;1775425;80;21512;-68
2021/08/28 01:51:28;;;;;;;10.40;7.75;;;;;;;16.98;75.87;99182.41;1784531;79;21019;-68
2021/08/28 01:53:55;;;;;;;9.90;7.87;;;;;;;17.00;76.12;99173.67;1815128;79;21114;-68
2021/08/28 01:56:23;;;;;;;9.95;7.42;;;;;;;17.00;76.30;99173.10;1793779;78;21214;-69
2021/08/28 01:58:57;;;;;;;18.17;8.93;;;;;;;17.03;76.34;99164.58;1807589;79;21556;-68
2021/08/28 02:01:39;;;;;;;13.08;7.80;;;;;;;17.03;76.26;99152.88;1819811;78;21042;-68
2021/08/28 02:04:08;;;;;;;11.00;7.75;;;;;;;17.04;76.05;99157.25;1807245;79;21064;-68
2021/08/28 02:06:46;;;;;;;9.05;6.85;;;;;;;17.04;75.82;99154.47;1786210;79;21042;-67
2021/08/28 02:09:39;;;;;;;11.30;7.15;;;;;;;17.02;75.61;99149.88;1749950;80;21813;-68
2021/08/28 02:12:43;;;;;;;10.48;6.72;;;;;;;17.03;75.32;99151.48;1816515;78;21007;-68
2021/08/28 02:15:21;;;;;;;10.40;6.97;;;;;;;17.06;74.86;99147.74;1775492;80;21610;-69
2021/08/28 02:18:19;;;;;;;11.28;7.60;;;;;;;17.08;74.45;99153.13;1776120;79;21009;-67
2021/08/28 02:20:59;;;;;;;11.80;7.70;;;;;;;17.09;74.24;99151.16;1752038;81;21099;-68
2021/08/28 02:23:34;;;;;;;11.95;7.28;;;;;;;17.10;73.76;99144.44;1783550;79;21116;-68
2021/08/28 02:26:22;;;;;;;9.00;6.10;;;;;;;17.08;73.26;99130.06;1787403;79;21098;-67
2021/08/28 02:28:56;;;;;;;12.82;6.83;;;;;;;17.05;73.17;99128.84;1812087;79;21551;-68
2021/08/28 02:31:28;;;;;;;11.90;6.42;;;;;;;17.02;72.92;99117.88;1823081;78;21045;-67
2021/08/28 02:33:54;;;;;;;10.30;6.35;;;;;;;17.01;72.42;99110.69;1778831;80;21000;-67
2021/08/28 02:36:21;;;;;;;9.13;5.85;;;;;;;17.01;72.02;99112.66;1821215;78;21467;-67
2021/08/28 02:38:48;;;;;;;8.45;6.42;;;;;;;17.01;71.76;99124.61;1805634;79;21024;-67
2021/08/28 02:41:17;;;;;;;12.25;6.67;;;;;;;17.02;71.24;99136.55;1817567;78;21054;-68
2021/08/28 02:43:44;;;;;;;15.18;7.08;;;;;;;17.01;71.02;99136.31;1806130;79;21031;-69
2021/08/28 02:46:15;;;;;;;9.85;7.30;;;;;;;17.00;71.18;99122.20;1821955;78;20979;-67
2021/08/28 02:48:43;;;;;;;11.20;6.50;;;;;;;16.98;71.37;99114.23;1743004;79;21730;-68
2021/08/28 02:51:10;;;;;;;18.82;6.40;;;;;;;16.95;71.57;99112.20;1792448;78;20999;-67
2021/08/28 02:53:42;;;;;;;10.38;5.58;;;;;;;16.93;71.70;99102.61;1780292;79;21064;-68
2021/08/28 02:56:10;;;;;;;10.03;6.22;;;;;;;16.89;71.74;99114.48;1790380;78;21019;-68
2021/08/28 02:58:38;;;;;;;8.28;6.33;;;;;;;16.89;71.82;99118.66;1794586;79;21059;-67
2021/08/28 03:01:06;;;;;;;9.48;5.78;;;;;;;16.91;71.51;99135.79;1774957;79;21040;-67
2021/08/28 03:03:33;;;;;;;9.23;6.03;;;;;;;16.93;71.39;99147.93;1775246;80;20985;-68
2021/08/28 03:06:01;;;;;;;7.83;6.85;;;;;;;16.95;71.42;99157.30;1776237;80;21524;-68
2021/08/28 03:08:29;;;;;;;10.68;6.67;;;;;;;16.96;71.60;99150.55;1801891;79;21480;-69
2021/08/28 03:10:57;;;;;;;7.58;5.53;;;;;;;16.95;71.84;99136.42;1816889;79;21044;-68
2021/08/28 03:13:29;;;;;;;9.13;5.10;;;;;;;16.91;71.86;99131.61;1761867;80;21028;-68
2021/08/28 03:15:58;;;;;;;8.28;5.33;;;;;;;16.91;72.03;99129.41;1802623;79;20980;-69
2021/08/28 03:18:24;;;;;;;9.73;5.37;;;;;;;16.90;71.75;99127.81;1804066;78;21476;-68
2021/08/28 03:20:54;;;;;;;9.13;5.22;;;;;;;16.91;71.75;99126.05;1808148;79;21016;-69
2021/08/28 03:23:22;;;;;;;6.92;5.25;;;;;;;16.94;71.57;99130.66;1786999;79;20937;-69
2021/08/28 03:25:59;;;;;;;6.47;5.03;;;;;;;16.96;71.55;99121.33;1813419;79;21079;-68
2021/08/28 03:28:28;;;;;;;10.95;5.00;;;;;;;16.97;71.58;99118.78;1795753;78;21484;-68
2021/08/28 03:30:55;;;;;;;8.10;5.37;;;;;;;16.97;71.71;99124.34;1782418;79;21043;-69
2021/08/28 03:33:21;;;;;;;7.28;4.65;;;;;;;16.98;71.65;99119.80;1821381;78;21003;-68
2021/08/28 03:35:58;;;;;;;11.30;4.47;;;;;;;16.98;71.78;99132.31;1807339;79;21012;-68
2021/08/28 03:38:27;;;;;;;9.78;5.40;;;;;;;17.01;71.81;99126.58;1802073;78;21478;-68
2021/08/28 03:40:56;;;;;;;8.15;5.20;;;;;;;17.03;71.97;99133.97;1806853;79;21055;-68
2021/08/28 03:43:25;;;;;;;7.70;5.28;;;;;;;17.03;72.11;99136.75;1788456;79;33771;-67
2021/08/28 03:45:52;;;;;;;6.97;4.22;;;;;;;17.03;72.32;99140.34;1816510;79;21012;-68
2021/08/28 03:48:22;;;;;;;12.65;5.33;;;;;;;17.03;72.42;99136.75;1818719;78;21051;-68
2021/08/28 03:50:50;;;;;;;5.60;4.40;;;;;;;17.03;72.56;99143.12;1749801;80;21606;-68
2021/08/28 03:53:20;;;;;;;6.80;4.80;;;;;;;17.04;72.69;99147.51;1779711;79;21043;-69
2021/08/28 03:55:48;;;;;;;9.40;4.62;;;;;;;17.04;72.85;99148.90;1824201;78;20964;-68
2021/08/28 03:58:14;;;;;;;7.53;5.30;;;;;;;17.07;73.03;99150.73;1807055;79;21587;-69
2021/08/28 04:00:43;;;;;;;6.80;5.45;;;;;;;17.08;73.33;99154.53;1781422;78;20956;-67
2021/08/28 04:03:09;;;;;;;13.98;5.35;;;;;;;17.06;73.61;99149.91;1777458;80;21018;-68
2021/08/28 04:05:37;;;;;;;5.72;4.80;;;;;;;17.06;74.08;99156.09;1777016;80;20910;-69
2021/08/28 04:08:06;;;;;;;11.10;4.87;;;;;;;17.02;74.42;99151.27;1777112;80;21577;-69
2021/08/28 04:10:35;;;;;;;7.50;5.50;;;;;;;17.01;74.65;99154.41;1806215;79;21558;-70
2021/08/28 04:13:05;;;;;;;7.08;4.85;;;;;;;17.00;74.93;99164.75;1818218;79;21429;-68
2021/08/28 04:15:31;;;;;;;9.45;5.15;;;;;;;16.97;75.08;99167.47;1816201;79;21959;-68
2021/08/28 04:18:17;;;;;;;7.75;5.03;;;;;;;16.95;75.22;99167.84;1786043;79;20988;-69
2021/08/28 04:20:45;;;;;;;8.58;4.50;;;;;;;16.94;75.33;99162.05;1786144;80;21063;-68
2021/08/28 04:23:15;;;;;;;13.85;5.17;;;;;;;16.93;75.42;99151.30;1759456;80;21528;-70
2021/08/28 04:26:00;;;;;;;6.83;4.35;;;;;;;16.91;75.65;99151.67;1786492;79;21413;-69
2021/08/28 04:28:29;;;;;;;6.78;4.08;;;;;;;16.89;75.68;99141.49;1786429;79;21150;-68
2021/08/28 04:30:56;;;;;;;6.25;4.90;;;;;;;16.89;75.60;99144.27;1786090;80;20979;-68
2021/08/28 04:33:23;;;;;;;9.00;4.87;;;;;;;16.88;75.46;99146.86;1785868;79;21015;-68
2021/08/28 04:35:49;;;;;;;9.85;5.33;;;;;;;16.90;75.32;99159.81;1790467;79;21023;-68
2021/08/28 04:38:16;;;;;;;6.30;4.28;;;;;;;16.90;75.34;99165.38;1786399;80;21425;-68
2021/08/28 04:40:42;;;;;;;7.15;5.00;;;;;;;16.91;75.32;99163.61;1786273;80;21473;-68
2021/08/28 04:43:09;;;;;;;5.60;4.53;;;;;;;16.91;75.29;99160.83;1785565;79;20985;-70
2021/08/28 04:45:37;;;;;;;8.20;5.08;;;;;;;16.91;75.14;99159.44;1805626;79;21525;-69
2021/08/28 04:48:06;;;;;;;5.03;4.03;;;;;;;16.91;75.15;99158.05;1785720;79;21019;-70
2021/08/28 04:50:35;;;;;;;13.25;4.25;;;;;;;16.90;75.11;99154.25;1818169;79;21067;-68
2021/08/28 04:53:03;;;;;;;5.78;3.95;;;;;;;16.88;75.20;99162.97;1818246;79;21152;-67
2021/08/28 04:55:31;;;;;;;6.17;4.35;;;;;;;16.90;75.40;99162.59;1794932;78;20943;-70
2021/08/28 04:57:59;;;;;;;6.42;4.53;;;;;;;16.91;75.56;99161.41;1809055;79;20940;-70
2021/08/28 05:00:26;;;;;;;7.10;4.87;;;;;;;16.92;75.76;99160.25;1819695;78;21042;-70
2021/08/28 05:03:13;;;;;;;6.45;4.75;;;;;;;16.96;75.81;99167.23;1717552;83;21383;-68
2021/08/28 05:05:40;;;;;;;6.60;4.87;;;;;;;16.98;75.78;99174.05;1742286;82;21574;-69
2021/08/28 05:08:08;;;;;;;9.75;5.33;;;;;;;16.99;75.74;99175.65;1733305;80;21062;-69
2021/08/28 05:10:35;;;;;;;6.30;4.40;;;;;;;16.99;75.76;99178.43;1797751;79;21059;-70
2021/08/28 05:13:03;;;;;;;7.60;4.58;;;;;;;17.00;75.78;99183.42;1799986;78;20920;-70
2021/08/28 05:15:32;;;;;;;9.40;5.25;;;;;;;16.98;75.75;99174.05;1783442;79;21048;-70
2021/08/28 05:18:01;;;;;;;8.00;4.92;;;;;;;16.98;75.88;99167.09;1789559;79;21020;-70
2021/08/28 05:20:28;;;;;;;6.53;5.08;;;;;;;16.99;76.03;99171.48;1792068;79;20988;-69
2021/08/28 05:22:57;;;;;;;8.45;5.45;;;;;;;16.99;76.10;99174.26;1806126;78;20974;-69
2021/08/28 05:25:27;;;;;;;9.00;4.75;;;;;;;17.02;76.20;99177.71;1772630;80;21019;-70
2021/08/28 05:27:54;;;;;;;7.75;4.97;;;;;;;17.04;76.23;99179.52;1775296;80;20980;-69
2021/08/28 05:30:25;;;;;;;14.33;5.80;;;;;;;17.07;76.21;99171.59;1790484;79;21869;-70
2021/08/28 05:32:54;;;;;;;9.10;5.22;;;;;;;17.08;76.09;99162.06;1814870;78;20921;-69
2021/08/28 05:35:21;;;;;;;8.40;4.87;;;;;;;17.11;76.14;99166.94;1804636;79;20980;-69
2021/08/28 05:37:52;;;;;;;6.58;4.62;;;;;;;17.16;75.97;99174.97;1784928;79;20990;-70
2021/08/28 05:40:22;;;;;;;10.65;5.15;;;;;;;17.23;75.96;99177.06;1761850;80;21051;-69
2021/08/28 05:42:48;;;;;;;8.98;4.78;;;;;;;17.27;75.83;99176.52;1785694;79;21457;-68
2021/08/28 05:45:17;;;;;;;12.93;5.47;;;;;;;17.32;75.62;99183.16;1785245;80;21105;-68
2021/08/28 05:47:44;;;;;;;7.55;5.42;;;;;;;17.35;75.51;99179.62;1788987;79;20985;-68
2021/08/28 05:50:11;;;;;;;7.47;5.58;;;;;;;17.39;75.57;99174.11;1799821;79;20949;-69
2021/08/28 05:52:38;;;;;;;6.40;5.28;;;;;;;17.43;75.30;99178.34;1793436;79;21130;-68
2021/08/28 05:55:10;;;;;;;8.53;5.28;;;;;;;17.47;75.04;99177.20;1796373;79;21129;-68
2021/08/28 05:57:37;;;;;;;7.67;5.35;;;;;;;17.55;74.87;99174.53;1792592;79;21563;-68
2021/08/28 06:00:05;;;;;;;10.15;5.00;;;;;;;17.61;74.62;99173.02;1754817;80;20912;-67
2021/08/28 06:02:36;;;;;;;6.72;5.17;;;;;;;17.67;74.43;99182.67;1782850;80;21055;-67
2021/08/28 06:05:12;;;;;;;8.30;5.47;;;;;;;17.72;74.11;99187.10;1783425;80;20976;-68
2021/08/28 06:07:57;;;;;;;8.50;5.75;;;;;;;17.74;74.17;99193.89;1760568;81;21101;-68
2021/08/28 06:10:43;;;;;;;8.35;6.87;;;;;;;17.77;73.74;99190.95;1777175;80;21470;-69
2021/08/28 06:13:28;;;;;;;5.92;4.97;;;;;;;17.79;73.36;99189.18;1760487;81;20970;-68
2021/08/28 06:15:57;;;;;;;7.53;5.58;;;;;;;17.80;73.38;99197.74;1775994;80;21024;-67
2021/08/28 06:18:26;;;;;;;6.70;5.37;;;;;;;17.81;73.30;99195.19;1760554;81;21058;-69
2021/08/28 06:20:52;;;;;;;10.53;6.05;;;;;;;17.80;73.27;99188.80;1751303;80;21159;-69
2021/08/28 06:23:22;;;;;;;7.87;5.42;;;;;;;17.81;73.08;99196.58;1760377;81;20916;-67
2021/08/28 06:25:50;;;;;;;8.25;6.17;;;;;;;17.81;73.28;99192.40;1785748;79;21421;-68
2021/08/28 06:28:17;;;;;;;6.53;5.03;;;;;;;17.80;73.60;99187.41;1797197;79;21028;-68
2021/08/28 06:30:44;;;;;;;11.12;6.55;;;;;;;17.83;73.72;99190.02;1798858;78;21085;-67
2021/08/28 06:33:13;;;;;;;11.28;5.90;;;;;;;17.85;73.93;99190.45;1799215;78;21530;-67
2021/08/28 06:35:42;;;;;;;13.85;6.17;;;;;;;17.87;73.79;99188.91;1795065;79;21036;-67
2021/08/28 06:38:10;;;;;;;10.08;6.67;;;;;;;17.88;73.98;99189.69;1795640;79;21408;-67
2021/08/28 06:40:40;;;;;;;6.95;5.45;;;;;;;17.92;74.19;99191.94;1789177;79;21537;-67
2021/08/28 06:43:27;;;;;;;10.65;5.87;;;;;;;18.00;74.65;99195.03;1795804;79;21527;-68
2021/08/28 06:46:13;;;;;;;14.95;5.95;;;;;;;18.11;73.88;99194.36;1799767;79;21162;-69
2021/08/28 06:48:59;;;;;;;9.85;6.08;;;;;;;18.25;74.35;99202.13;1804121;78;21058;-69
2021/08/28 06:51:44;;;;;;;7.97;6.00;;;;;;;18.41;73.72;99206.08;1793283;78;20974;-68
2021/08/28 06:54:31;;;;;;;7.85;6.17;;;;;;;18.52;73.31;99206.79;1715877;83;21525;-69
2021/08/28 06:57:15;;;;;;;9.53;6.62;;;;;;;18.55;72.68;99210.20;1715260;83;21675;-69
2021/08/28 06:59:53;;;;;;;7.72;5.80;;;;;;;18.56;72.66;99218.80;1759139;78;20921;-69
2021/08/28 07:02:40;;;;;;;10.28;6.90;;;;;;;18.53;72.18;99222.33;1804568;78;21556;-68
2021/08/28 07:05:08;;;;;;;9.20;6.40;;;;;;;18.48;72.47;99221.50;1786904;79;20965;-69
2021/08/28 07:07:49;;;;;;;8.58;6.33;;;;;;;18.47;72.77;99229.67;1802233;78;21413;-67
2021/08/28 07:10:16;;;;;;;9.33;6.12;;;;;;;18.44;72.75;99237.38;1803113;78;21035;-70
2021/08/28 07:12:43;;;;;;;10.23;5.42;;;;;;;18.44;72.90;99237.38;1772203;78;21056;-67
2021/08/28 07:15:12;;;;;;;10.15;6.60;;;;;;;18.45;73.13;99234.83;1796840;78;20925;-70
2021/08/28 07:17:42;;;;;;;7.17;5.15;;;;;;;18.45;73.24;99240.40;1804633;78;20972;-68
2021/08/28 07:20:11;;;;;;;12.43;5.53;;;;;;;18.45;72.66;99243.19;1778063;79;20989;-70
2021/08/28 07:22:39;;;;;;;6.95;4.33;;;;;;;18.46;72.21;99247.57;1791631;79;21056;-68
2021/08/28 07:25:07;;;;;;;9.25;5.35;;;;;;;18.52;72.24;99246.66;1800236;79;21763;-68
2021/08/28 07:27:37;;;;;;;10.32;4.42;;;;;;;18.65;72.52;99244.39;1784656;79;21029;-68
2021/08/28 07:30:19;;;;;;;8.43;4.30;;;;;;;18.81;72.46;99243.36;1744298;79;21471;-69
2021/08/28 07:32:46;;;;;;;7.45;3.55;;;;;;;18.91;70.95;99255.22;1769857;81;20954;-72
2021/08/28 07:35:12;;;;;;;10.35;3.47;;;;;;;18.92;70.33;99254.64;1770327;80;20945;-70
2021/08/28 07:37:42;;;;;;;5.37;3.40;;;;;;;18.93;69.54;99254.84;1770139;79;21816;-68
2021/08/28 07:40:11;;;;;;;5.03;3.33;;;;;;;18.98;68.99;99249.72;1758386;81;21035;-69
2021/08/28 07:42:38;;;;;;;3.72;3.10;;;;;;;19.04;68.60;99257.74;1770266;79;20986;-68
2021/08/28 07:45:06;;;;;;;4.65;2.92;;;;;;;19.06;67.63;99260.34;1758756;81;21562;-69
2021/08/28 07:47:34;;;;;;;4.12;3.10;;;;;;;19.08;67.58;99262.17;1769958;80;21452;-69
2021/08/28 07:50:01;;;;;;;3.45;3.10;;;;;;;19.15;67.67;99268.44;1782301;80;20974;-70
2021/08/28 07:52:29;;;;;;;4.12;2.52;;;;;;;19.23;66.91;99267.89;1791735;80;20911;-69
2021/08/28 07:54:56;;;;;;;3.40;2.42;;;;;;;19.19;65.97;99276.23;1785070;80;21011;-70
2021/08/28 07:57:24;;;;;;;8.40;3.30;;;;;;;19.14;66.56;99269.61;1789048;80;21022;-71
2021/08/28 07:59:51;;;;;;;4.35;2.87;;;;;;;19.16;66.80;99278.99;1744715;81;21463;-71
2021/08/28 08:02:20;;;;;;;3.90;3.08;;;;;;;19.16;66.34;99274.22;1772021;81;21940;-70
2021/08/28 08:04:49;;;;;;;7.40;3.05;;;;;;;19.11;66.04;99273.79;1783252;79;21030;-70
2021/08/28 08:07:37;;;;;;;3.20;2.75;;;;;;;19.03;66.84;99276.47;1786278;80;21031;-71
2021/08/28 08:10:24;;;;;;;3.10;2.60;;;;;;;19.00;66.67;99290.39;1791846;79;20978;-69
2021/08/28 08:13:10;;;;;;;5.12;2.40;;;;;;;18.92;66.83;99283.33;1790817;79;20948;-69
2021/08/28 08:15:56;;;;;;;3.00;2.17;;;;;;;18.91;67.28;99291.51;1772156;80;21042;-69
2021/08/28 08:18:41;;;;;;;6.67;2.10;;;;;;;18.97;66.79;99292.76;1785855;80;21012;-70
2021/08/28 08:21:30;;;;;;;4.65;1.90;;;;;;;19.06;66.39;99298.62;1785765;80;21045;-69
2021/08/28 08:24:09;;;;;;;4.92;2.47;;;;;;;19.14;65.70;99301.72;1749055;80;21478;-68
2021/08/28 08:26:41;;;;;;;2.05;1.85;;;;;;;19.17;65.22;99311.33;1773197;80;21471;-69
2021/08/28 08:29:18;;;;;;;2.90;2.40;;;;;;;19.13;64.76;99314.66;1765472;80;21677;-70
2021/08/28 08:31:54;;;;;;;5.05;1.90;;;;;;;19.06;64.79;99311.99;1760576;80;20938;-69
2021/08/28 08:34:37;;;;;;;9.48;2.72;;;;;;;19.03;64.48;99313.34;1786309;80;20960;-69
2021/08/28 08:37:05;;;;;;;2.12;1.52;;;;;;;19.02;65.00;99316.72;1786193;80;21029;-70
2021/08/28 08:39:32;;;;;;;2.70;1.52;;;;;;;19.04;65.34;99315.75;1786134;80;20914;-71
2021/08/28 08:41:59;;;;;;;5.75;1.75;;;;;;;19.07;64.59;99316.99;1760532;80;22149;-70
2021/08/28 08:44:28;;;;;;;2.27;1.77;;;;;;;19.05;64.02;99329.13;1785814;80;20922;-71
2021/08/28 08:46:55;;;;;;;1.87;1.62;;;;;;;19.04;64.34;99328.93;1785940;80;21072;-70
2021/08/28 08:49:28;;;;;;;1.32;1.22;;;;;;;19.01;64.43;99333.27;1784995;80;21321;-70
2021/08/28 08:51:55;;;;;;;1.90;1.70;;;;;;;18.95;64.35;99324.43;1789868;79;21004;-68
2021/08/28 08:54:24;;;;;;;2.35;1.67;;;;;;;18.96;64.88;99327.45;1779204;79;21131;-69
2021/08/28 08:56:50;;;;;;;3.22;1.70;;;;;;;18.99;64.92;99334.24;1775837;79;20992;-67
2021/08/28 08:59:17;;;;;;;3.80;1.70;;;;;;;18.98;64.56;99339.05;1795137;79;20988;-68
2021/08/28 09:01:45;;;;;;;2.25;1.60;;;;;;;18.96;63.97;99337.80;1751016;79;21029;-69
2021/08/28 09:04:30;;;;;;;1.80;1.60;;;;;;;18.88;63.61;99338.33;1796071;79;21043;-69
2021/08/28 09:06:58;;;;;;;4.03;1.47;;;;;;;18.80;64.31;99336.64;1784069;79;21012;-68
2021/08/28 09:09:25;;;;;;;2.30;1.70;;;;;;;18.85;64.79;99344.67;1795278;79;21566;-69
2021/08/28 09:12:08;;;;;;;2.12;1.80;;;;;;;18.93;66.00;99337.17;1797778;79;21000;-70
2021/08/28 09:14:34;;;;;;;2.10;1.70;;;;;;;18.98;64.57;99349.39;1800216;79;20956;-69
2021/08/28 09:17:16;;;;;;;2.27;1.75;;;;;;;18.96;64.88;99350.36;1774698;79;21036;-69
2021/08/28 09:19:43;;;;;;;4.30;1.82;;;;;;;18.97;65.14;99353.35;1799678;79;21656;-68
2021/08/28 09:22:32;;;;;;;2.17;1.75;;;;;;;19.05;64.71;99358.44;1795984;79;21472;-69
2021/08/28 09:25:02;;;;;;;4.65;1.60;;;;;;;19.09;64.59;99358.69;1797670;79;21035;-69
2021/08/28 09:27:43;;;;;;;3.37;1.90;;;;;;;19.14;64.63;99355.38;1795730;79;21164;-70
2021/08/28 09:30:23;;;;;;;3.67;1.47;;;;;;;19.19;64.74;99360.00;1799396;79;21064;-69
2021/08/28 09:33:06;;;;;;;1.50;1.35;;;;;;;19.24;64.41;99358.06;1795250;79;21017;-69
2021/08/28 09:35:35;;;;;;;1.47;1.30;;;;;;;19.31;63.36;99351.16;1810822;78;21030;-70
2021/08/28 09:38:08;;;;;;;3.02;1.50;;;;;;;19.42;63.41;99359.05;1788109;79;21036;-71
2021/08/28 09:40:41;;;;;;;2.95;1.60;;;;;;;19.56;63.52;99364.55;1778446;80;20980;-69
2021/08/28 09:43:17;;;;;;;3.10;1.60;;;;;;;19.69;63.71;99360.86;1809521;78;20980;-70
2021/08/28 09:45:46;;;;;;;4.28;1.40;;;;;;;19.82;62.82;99364.95;1788713;79;21148;-69
2021/08/28 09:48:18;;;;;;;3.10;1.47;;;;;;;19.93;62.59;99365.05;1809151;78;21480;-69
2021/08/28 09:50:48;;;;;;;3.70;1.47;;;;;;;20.04;62.89;99358.77;1783338;78;21078;-69
2021/08/28 09:53:23;;;;;;;1.87;1.55;;;;;;;20.13;62.45;99366.81;1789906;79;20993;-70
2021/08/28 09:55:58;;;;;;;2.00;1.50;;;;;;;20.23;62.56;99363.88;1785792;79;21377;-70
2021/08/28 09:58:32;;;;;;;6.03;1.27;;;;;;;20.31;62.16;99375.30;1809968;78;21957;-70
2021/08/28 10:01:04;;;;;;;2.17;1.55;;;;;;;20.30;61.94;99370.30;1786707;79;21002;-69
2021/08/28 10:03:32;;;;;;;4.60;1.35;;;;;;;20.29;61.33;99373.48;1791016;79;21110;-70
2021/08/28 10:06:00;;;;;;;5.53;1.50;;;;;;;20.24;61.06;99376.06;1785234;79;21031;-69
2021/08/28 10:08:27;;;;;;;4.50;1.20;;;;;;;20.23;60.65;99381.47;1784445;79;21000;-70
2021/08/28 10:10:56;;;;;;;3.98;1.37;;;;;;;20.19;61.03;99380.04;1793318;80;21163;-69
2021/08/28 10:13:23;;;;;;;3.47;1.62;;;;;;;20.29;61.71;99379.89;1783726;79;20988;-70
2021/08/28 10:15:50;;;;;;;2.58;1.30;;;;;;;20.43;62.11;99378.38;1788326;79;21631;-70
2021/08/28 10:18:18;;;;;;;2.98;1.47;;;;;;;20.59;61.63;99382.23;1787723;79;20985;-69
2021/08/28 10:20:44;;;;;;;2.50;1.47;;;;;;;20.63;61.11;99381.67;1801606;78;20975;-71
2021/08/28 10:23:12;;;;;;;2.52;1.57;;;;;;;20.71;60.26;99378.91;1826755;78;21080;-67
2021/08/28 10:25:40;;;;;;;1.52;1.30;;;;;;;20.78;60.67;99384.52;1826636;78;20956;-69
2021/08/28 10:28:07;;;;;;;1.22;1.12;;;;;;;20.82;59.44;99385.34;1804894;78;21014;-69
2021/08/28 10:30:33;;;;;;;5.17;1.40;;;;;;;20.87;59.40;99389.16;1774720;80;21020;-70
2021/08/28 10:33:00;;;;;;;9.15;3.35;;;;;;;20.96;58.65;99388.84;1794680;80;20975;-70
2021/08/28 10:35:29;;;;;;;1.70;1.50;;;;;;;21.06;59.22;99383.65;1761320;81;21057;-70
2021/08/28 10:37:55;;;;;;;3.60;1.52;;;;;;;21.14;59.11;99388.88;1774750;80;21065;-71
2021/08/28 10:40:32;;;;;;;3.58;1.50;;;;;;;21.19;58.76;99399.51;1794389;79;20875;-71
2021/08/28 10:43:05;;;;;;;17.82;4.03;;;;;;;21.21;59.16;99380.28;1794303;80;20994;-70
2021/08/28 10:45:35;;;;;;;3.83;1.17;;;;;;;21.13;58.58;99394.29;1761252;81;20908;-70
2021/08/28 10:48:20;;;;;;;1.82;1.15;;;;;;;21.16;58.12;99392.09;1774819;80;21156;-70
2021/08/28 10:50:47;;;;;;;3.45;1.12;;;;;;;21.21;56.56;99390.09;1792985;79;21069;-71
2021/08/28 10:53:14;;;;;;;2.33;1.70;;;;;;;21.25;57.30;99388.92;1726054;80;21017;-70
2021/08/28 10:55:44;;;;;;;2.72;1.50;;;;;;;21.34;56.19;99396.14;1791200;80;21062;-70
2021/08/28 10:58:24;;;;;;;2.67;1.40;;;;;;;21.34;56.60;99405.32;1758609;81;20986;-70
2021/08/28 11:00:54;;;;;;;2.70;1.50;;;;;;;21.32;55.59;99397.94;1776426;80;21620;-68
2021/08/28 11:03:32;;;;;;;9.95;2.20;;;;;;;21.33;55.78;99400.12;1791175;79;21053;-69
2021/08/28 11:06:18;;;;;;;2.05;1.15;;;;;;;21.35;56.28;99404.14;1791438;80;21062;-69
2021/08/28 11:08:57;;;;;;;2.27;1.32;;;;;;;21.39;56.77;99412.55;1758220;81;21078;-69
2021/08/28 11:11:38;;;;;;;1.55;1.20;;;;;;;21.40;56.26;99409.95;1791102;80;21018;-70
2021/08/28 11:14:07;;;;;;;1.95;1.55;;;;;;;21.44;56.63;99408.56;1758350;81;21074;-69
2021/08/28 11:16:46;;;;;;;1.60;1.20;;;;;;;21.55;56.27;99419.77;1753488;79;20942;-69
2021/08/28 11:19:32;;;;;;;4.62;1.62;;;;;;;21.65;56.16;99410.58;1817700;79;20963;-70
2021/08/28 11:21:58;;;;;;;1.40;1.30;;;;;;;21.77;55.51;99405.17;1789273;79;21590;-70
2021/08/28 11:24:27;;;;;;;2.65;1.12;;;;;;;21.83;55.92;99400.82;1787365;78;21044;-69
2021/08/28 11:26:57;;;;;;;1.87;1.20;;;;;;;21.89;54.97;99396.41;1784976;80;21033;-68
2021/08/28 11:29:47;;;;;;;1.65;1.15;;;;;;;21.95;54.12;99398.80;1785174;80;21065;-68
2021/08/28 11:32:18;;;;;;;1.90;1.30;;;;;;;22.01;53.96;99399.99;1786002;80;20868;-69
2021/08/28 11:34:54;;;;;;;2.65;1.12;;;;;;;22.09;53.48;99397.38;1784946;80;20978;-68
2021/08/28 11:37:35;;;;;;;2.30;1.40;;;;;;;22.10;52.56;99398.19;1785620;80;20943;-70
2021/08/28 11:40:23;;;;;;;1.30;1.10;;;;;;;22.11;53.27;99407.60;1785744;80;22223;-70
2021/08/28 11:42:49;;;;;;;7.70;1.50;;;;;;;22.14;52.37;99407.41;1785300;80;21566;-69
2021/08/28 11:45:18;;;;;;;1.87;1.30;;;;;;;22.10;52.14;99406.01;1785465;80;21065;-69
2021/08/28 11:47:45;;;;;;;2.17;1.30;;;;;;;22.11;52.78;99409.59;1804772;78;20995;-69
2021/08/28 11:50:11;;;;;;;1.30;1.20;;;;;;;22.15;52.96;99405.39;1823737;78;20987;-69
2021/08/28 11:52:39;;;;;;;3.20;1.60;;;;;;;22.21;51.82;99407.38;1824048;78;21727;-69